createdAt,value
2018-11-04T00:01:23.285Z,51.40
2018-11-04T00:03:50.850Z,51.40
2018-11-04T00:06:18.419Z,51.40
2018-11-04T00:08:46.025Z,51.40
2018-11-04T00:11:13.613Z,51.40
2018-11-04T00:13:41.245Z,51.50
2018-11-04T00:16:08.831Z,51.50
2018-11-04T00:18:36.506Z,51.40
2018-11-04T00:21:04.352Z,51.70
2018-11-04T00:23:32.338Z,51.50
2018-11-04T00:25:59.903Z,51.50
2018-11-04T00:28:27.589Z,51.50
2018-11-04T00:30:55.162Z,51.50
2018-11-04T00:33:22.733Z,51.50
2018-11-04T00:35:50.314Z,51.50
2018-11-04T00:38:17.888Z,51.40
2018-11-04T00:40:45.688Z,51.40
2018-11-04T00:43:13.254Z,51.40
2018-11-04T00:45:40.832Z,51.50
2018-11-04T00:48:08.416Z,51.40
2018-11-04T00:50:36.006Z,52.00
2018-11-04T00:53:03.584Z,51.40
2018-11-04T00:55:31.197Z,51.40
2018-11-04T00:57:58.810Z,51.50
2018-11-04T01:00:26.399Z,51.40
2018-11-04T01:02:53.988Z,51.50
2018-11-04T01:05:21.572Z,51.50
2018-11-04T01:07:49.139Z,51.40
2018-11-04T01:10:16.731Z,51.50
2018-11-04T01:12:44.855Z,51.40
2018-11-04T01:15:13.560Z,51.40
2018-11-04T01:17:41.858Z,51.40
2018-11-04T01:20:10.747Z,51.50
2018-11-04T01:22:38.320Z,51.40
2018-11-04T01:25:05.894Z,51.50
2018-11-04T01:27:33.480Z,51.50
2018-11-04T01:30:01.080Z,52.10
2018-11-04T01:32:28.696Z,51.40
2018-11-04T01:34:56.480Z,51.40
2018-11-04T01:37:24.253Z,51.50
2018-11-04T01:39:51.824Z,51.40
2018-11-04T01:42:19.492Z,51.40
2018-11-04T01:44:47.166Z,51.40
2018-11-04T01:47:14.720Z,51.50
2018-11-04T01:49:42.282Z,51.50
2018-11-04T01:52:09.859Z,51.50
2018-11-04T01:54:37.447Z,51.50
2018-11-04T01:57:05.773Z,51.40
2018-11-04T01:59:33.326Z,51.50
2018-11-04T02:02:00.901Z,51.50
2018-11-04T02:04:28.478Z,51.50
2018-11-04T02:06:56.043Z,51.40
2018-11-04T02:09:23.613Z,51.40
2018-11-04T02:11:51.198Z,51.40
2018-11-04T02:14:18.760Z,51.50
2018-11-04T02:16:46.341Z,51.40
2018-11-04T02:19:14.106Z,51.50
2018-11-04T02:21:41.699Z,51.40
2018-11-04T02:24:09.324Z,51.50
2018-11-04T02:26:36.982Z,51.40
2018-11-04T02:29:04.797Z,51.50
2018-11-04T02:31:32.379Z,51.40
2018-11-04T02:34:00.009Z,51.50
2018-11-04T02:36:27.621Z,51.50
2018-11-04T02:38:55.210Z,51.50
2018-11-04T02:41:22.735Z,51.40
2018-11-04T02:43:50.317Z,51.50
2018-11-04T02:46:17.887Z,51.40
2018-11-04T02:48:45.460Z,51.50
2018-11-04T02:51:13.030Z,51.40
2018-11-04T02:53:40.691Z,51.50
2018-11-04T02:56:08.282Z,51.40
2018-11-04T02:58:35.879Z,51.50
2018-11-04T03:01:03.458Z,51.50
2018-11-04T03:03:31.050Z,51.50
2018-11-04T03:05:58.640Z,51.40
2018-11-04T03:08:26.240Z,51.50
2018-11-04T03:10:53.814Z,51.40
2018-11-04T03:13:21.386Z,51.40
2018-11-04T03:15:48.956Z,51.40
2018-11-04T03:18:16.538Z,51.40
2018-11-04T03:20:44.112Z,51.40
2018-11-04T03:23:11.684Z,51.40
2018-11-04T03:25:39.439Z,51.40
2018-11-04T03:28:07.620Z,51.50
2018-11-04T03:30:35.219Z,51.40
2018-11-04T03:33:02.775Z,51.50
2018-11-04T03:35:30.344Z,51.50
2018-11-04T03:37:57.923Z,51.40
2018-11-04T03:40:25.483Z,51.50
2018-11-04T03:42:53.045Z,51.40
2018-11-04T03:45:20.616Z,51.40
2018-11-04T03:47:48.321Z,51.40
2018-11-04T03:50:15.917Z,51.40
2018-11-04T03:52:43.546Z,51.40
2018-11-04T03:55:11.128Z,51.50
2018-11-04T03:57:38.750Z,51.50
2018-11-04T04:00:07.375Z,51.50
2018-11-04T04:02:34.953Z,51.50
2018-11-04T04:05:02.531Z,51.50
2018-11-04T04:07:30.111Z,51.50
2018-11-04T04:09:57.692Z,51.50
2018-11-04T04:12:25.289Z,51.50
2018-11-04T04:14:52.870Z,51.50
2018-11-04T04:17:20.537Z,51.50
2018-11-04T04:19:48.123Z,52.10
2018-11-04T04:22:15.718Z,51.50
2018-11-04T04:24:43.387Z,51.50
2018-11-04T04:27:10.948Z,51.50
2018-11-04T04:29:38.529Z,51.50
2018-11-04T04:32:06.118Z,51.50
2018-11-04T04:34:34.116Z,51.50
2018-11-04T04:37:01.692Z,51.50
2018-11-04T04:39:29.296Z,51.50
2018-11-04T04:41:56.876Z,51.60
2018-11-04T04:44:24.444Z,51.60
2018-11-04T04:46:52.011Z,51.60
2018-11-04T04:49:19.576Z,51.60
2018-11-04T04:51:47.149Z,51.60
2018-11-04T04:54:14.726Z,51.60
2018-11-04T04:56:42.396Z,51.50
2018-11-04T04:59:10.122Z,51.50
2018-11-04T05:01:37.691Z,51.50
2018-11-04T05:04:05.248Z,51.50
2018-11-04T05:06:32.821Z,51.70
2018-11-04T05:09:00.467Z,52.30
2018-11-04T05:11:28.049Z,51.60
2018-11-04T05:13:55.615Z,51.60
2018-11-04T05:16:23.183Z,51.60
2018-11-04T05:18:50.753Z,51.60
2018-11-04T05:21:18.319Z,51.60
2018-11-04T05:23:45.864Z,51.60
2018-11-04T05:26:13.599Z,51.60
2018-11-04T05:28:41.172Z,51.60
2018-11-04T05:31:08.741Z,51.60
2018-11-04T05:33:36.318Z,51.50
2018-11-04T05:36:03.887Z,51.50
2018-11-04T05:38:31.932Z,51.50
2018-11-04T05:40:59.450Z,51.50
2018-11-04T05:43:27.026Z,51.50
2018-11-04T05:45:54.611Z,51.50
2018-11-04T05:48:22.203Z,51.50
2018-11-04T05:50:49.799Z,51.60
2018-11-04T05:53:17.374Z,51.50
2018-11-04T05:55:44.951Z,51.50
2018-11-04T05:58:12.636Z,51.50
2018-11-04T06:00:40.224Z,51.50
2018-11-04T06:03:07.800Z,51.50
2018-11-04T06:05:35.470Z,52.20
2018-11-04T06:08:03.048Z,51.60
2018-11-04T06:10:30.624Z,51.50
2018-11-04T06:12:58.216Z,51.50
2018-11-04T06:15:25.792Z,51.50
2018-11-04T06:17:53.417Z,51.50
2018-11-04T06:20:21.002Z,51.50
2018-11-04T06:22:48.596Z,51.50
2018-11-04T06:25:16.321Z,51.50
2018-11-04T06:27:43.895Z,51.50
2018-11-04T06:30:12.800Z,51.50
2018-11-04T06:32:40.653Z,51.50
2018-11-04T06:35:08.819Z,51.50
2018-11-04T06:37:36.988Z,51.50
2018-11-04T06:40:05.177Z,51.50
2018-11-04T06:42:32.787Z,51.50
2018-11-04T06:45:00.482Z,51.50
2018-11-04T06:47:28.190Z,51.50
2018-11-04T06:49:55.767Z,51.50
2018-11-04T06:52:23.383Z,51.50
2018-11-04T06:54:51.640Z,51.40
2018-11-04T06:57:19.215Z,51.50
2018-11-04T06:59:46.933Z,51.50
2018-11-04T07:02:14.537Z,51.60
2018-11-04T07:04:42.096Z,51.60
2018-11-04T07:07:09.689Z,51.60
2018-11-04T07:09:37.431Z,51.60
2018-11-04T07:12:05.155Z,51.60
2018-11-04T07:14:32.965Z,51.60
2018-11-04T07:17:00.565Z,51.60
2018-11-04T07:19:28.153Z,51.60
2018-11-04T07:21:56.022Z,51.60
2018-11-04T07:24:23.652Z,51.60
2018-11-04T07:26:51.228Z,51.60
2018-11-04T07:29:18.844Z,51.60
2018-11-04T07:31:46.443Z,51.60
2018-11-04T07:34:14.055Z,51.60
2018-11-04T07:36:41.635Z,51.70
2018-11-04T07:39:10.966Z,51.70
2018-11-04T07:41:38.541Z,51.70
2018-11-04T07:44:06.187Z,51.70
2018-11-04T07:46:33.837Z,51.60
2018-11-04T07:49:01.428Z,51.50
2018-11-04T07:51:29.027Z,51.40
2018-11-04T07:53:56.607Z,51.20
2018-11-04T07:56:24.177Z,51.20
2018-11-04T07:58:51.755Z,51.50
2018-11-04T08:01:19.534Z,51.20
2018-11-04T08:03:47.110Z,51.50
2018-11-04T08:06:14.684Z,51.00
2018-11-04T08:08:42.470Z,51.00
2018-11-04T08:11:10.079Z,51.00
2018-11-04T08:13:37.720Z,50.90
2018-11-04T08:16:05.275Z,50.90
2018-11-04T08:18:32.839Z,50.90
2018-11-04T08:21:00.497Z,51.40
2018-11-04T08:23:28.453Z,50.90
2018-11-04T08:25:56.075Z,50.90
2018-11-04T08:28:23.656Z,51.00
2018-11-04T08:30:51.279Z,51.20
2018-11-04T08:33:18.852Z,50.90
2018-11-04T08:35:46.526Z,51.40
2018-11-04T08:38:14.111Z,51.30
2018-11-04T08:40:41.702Z,51.20
2018-11-04T08:43:09.419Z,51.20
2018-11-04T08:45:37.274Z,51.20
2018-11-04T08:48:05.251Z,51.10
2018-11-04T08:50:34.832Z,51.10
2018-11-04T08:53:02.677Z,51.00
2018-11-04T08:55:30.295Z,50.90
2018-11-04T08:57:57.883Z,51.50
2018-11-04T09:00:25.448Z,50.80
2018-11-04T09:02:53.090Z,50.80
2018-11-04T09:05:20.650Z,50.70
2018-11-04T09:07:48.193Z,50.60
2018-11-04T09:10:16.329Z,50.50
2018-11-04T09:12:44.480Z,50.50
2018-11-04T09:15:12.460Z,50.50
2018-11-04T09:17:40.013Z,50.50
2018-11-04T09:20:08.859Z,50.60
2018-11-04T09:22:36.507Z,50.80
2018-11-04T09:25:04.314Z,50.50
2018-11-04T09:27:31.883Z,50.50
2018-11-04T09:29:59.479Z,50.50
2018-11-04T09:32:27.079Z,50.50
2018-11-04T09:34:54.697Z,50.50
2018-11-04T09:37:22.210Z,50.50
2018-11-04T09:39:49.966Z,50.50
2018-11-04T09:42:17.536Z,50.40
2018-11-04T09:44:45.113Z,50.50
2018-11-04T09:47:12.837Z,50.40
2018-11-04T09:49:41.017Z,50.60
2018-11-04T09:52:08.591Z,50.90
2018-11-04T09:54:36.432Z,50.90
2018-11-04T09:57:04.138Z,50.80
2018-11-04T09:59:31.967Z,50.60
2018-11-04T10:01:59.563Z,50.50
2018-11-04T10:04:27.176Z,50.60
2018-11-04T10:06:54.839Z,50.50
2018-11-04T10:09:22.408Z,50.50
2018-11-04T10:11:50.189Z,50.50
2018-11-04T10:14:17.779Z,50.50
2018-11-04T10:16:45.352Z,50.50
2018-11-04T10:19:12.961Z,50.50
2018-11-04T10:21:40.556Z,50.40
2018-11-04T10:24:08.237Z,50.40
2018-11-04T10:26:36.026Z,50.60
2018-11-04T10:29:03.628Z,50.50
2018-11-04T10:31:31.382Z,50.50
2018-11-04T10:33:59.094Z,50.50
2018-11-04T10:36:26.744Z,50.60
2018-11-04T10:38:54.405Z,51.20
2018-11-04T10:41:21.998Z,50.60
2018-11-04T10:43:50.064Z,50.80
2018-11-04T10:46:18.043Z,50.80
2018-11-04T10:48:46.528Z,50.90
2018-11-04T10:51:14.343Z,51.60
2018-11-04T10:53:43.125Z,50.70
2018-11-04T10:56:12.059Z,50.60
2018-11-04T10:58:39.725Z,50.60
2018-11-04T11:01:09.431Z,51.00
2018-11-04T11:03:37.851Z,50.90
2018-11-04T11:06:05.510Z,50.90
2018-11-04T11:08:33.176Z,51.30
2018-11-04T11:11:00.867Z,51.30
2018-11-04T11:13:28.994Z,51.40
2018-11-04T11:15:56.560Z,51.30
2018-11-04T11:18:24.179Z,51.10
2018-11-04T11:20:51.790Z,50.90
2018-11-04T11:23:19.468Z,50.90
2018-11-04T11:25:47.161Z,50.90
2018-11-04T11:28:17.413Z,51.50
2018-11-04T11:30:45.193Z,50.90
2018-11-04T11:33:12.768Z,50.80
2018-11-04T11:35:40.899Z,50.80
2018-11-04T11:38:08.555Z,50.70
2018-11-04T11:40:36.108Z,50.60
2018-11-04T11:43:03.698Z,50.60
2018-11-04T11:45:31.629Z,50.60
2018-11-04T11:47:59.270Z,50.50
2018-11-04T11:50:26.859Z,50.50
2018-11-04T11:52:54.496Z,50.50
2018-11-04T11:55:22.095Z,50.50
2018-11-04T11:57:50.008Z,50.40
2018-11-04T12:00:17.597Z,50.30
2018-11-04T12:02:45.198Z,50.20
2018-11-04T12:05:12.816Z,50.20
2018-11-04T12:07:40.442Z,50.20
2018-11-04T12:10:11.279Z,50.10
2018-11-04T12:12:38.980Z,50.80
2018-11-04T12:15:07.223Z,50.20
2018-11-04T12:17:34.925Z,50.20
2018-11-04T12:20:02.610Z,50.20
2018-11-04T12:22:31.054Z,50.20
2018-11-04T12:24:58.627Z,50.90
2018-11-04T12:27:26.356Z,50.30
2018-11-04T12:29:54.136Z,50.50
2018-11-04T12:32:22.016Z,50.90
2018-11-04T12:34:49.612Z,50.90
2018-11-04T12:37:17.177Z,50.90
2018-11-04T12:39:44.844Z,51.10
2018-11-04T12:42:12.673Z,51.20
2018-11-04T12:44:40.402Z,51.40
2018-11-04T12:47:08.039Z,51.30
2018-11-04T12:49:35.616Z,51.30
2018-11-04T12:52:03.244Z,51.20
2018-11-04T12:54:30.832Z,51.20
2018-11-04T12:56:58.440Z,51.00
2018-11-04T12:59:26.135Z,51.00
2018-11-04T13:01:53.799Z,50.90
2018-11-04T13:04:22.179Z,50.90
2018-11-04T13:06:49.900Z,50.80
2018-11-04T13:09:17.505Z,50.70
2018-11-04T13:11:45.096Z,50.50
2018-11-04T13:14:12.683Z,50.50
2018-11-04T13:16:40.249Z,50.50
2018-11-04T13:19:07.838Z,50.30
2018-11-04T13:21:35.844Z,50.30
2018-11-04T13:24:03.512Z,50.20
2018-11-04T13:26:31.154Z,50.20
2018-11-04T13:28:58.793Z,50.20
2018-11-04T13:31:26.485Z,50.10
2018-11-04T13:33:54.130Z,50.00
2018-11-04T13:36:21.756Z,50.10
2018-11-04T13:38:49.341Z,50.10
2018-11-04T13:41:16.927Z,50.00
2018-11-04T13:43:44.569Z,50.30
2018-11-04T13:46:12.154Z,50.20
2018-11-04T13:48:39.935Z,50.20
2018-11-04T13:51:07.525Z,50.30
2018-11-04T13:53:35.185Z,50.20
2018-11-04T13:56:02.757Z,50.20
2018-11-04T13:58:30.669Z,50.20
2018-11-04T14:00:58.251Z,50.20
2018-11-04T14:03:25.827Z,50.50
2018-11-04T14:05:53.446Z,50.50
2018-11-04T14:08:22.113Z,50.50
2018-11-04T14:10:49.689Z,50.50
2018-11-04T14:13:17.317Z,50.50
2018-11-04T14:15:45.060Z,50.50
2018-11-04T14:18:12.867Z,50.50
2018-11-04T14:20:40.447Z,50.50
2018-11-04T14:23:08.020Z,50.50
2018-11-04T14:25:35.666Z,50.50
2018-11-04T14:28:03.262Z,50.50
2018-11-04T14:30:30.955Z,50.30
2018-11-04T14:32:58.592Z,51.20
2018-11-04T14:35:26.200Z,50.60
2018-11-04T14:37:53.778Z,50.40
2018-11-04T14:40:21.351Z,50.40
2018-11-04T14:42:50.904Z,50.30
2018-11-04T14:45:18.448Z,50.20
2018-11-04T14:47:47.059Z,50.00
2018-11-04T14:50:17.472Z,50.10
2018-11-04T14:52:45.100Z,50.10
2018-11-04T14:55:12.671Z,50.20
2018-11-04T14:57:40.248Z,50.00
2018-11-04T15:00:09.542Z,50.10
2018-11-04T15:02:37.211Z,50.10
2018-11-04T15:05:05.720Z,50.10
2018-11-04T15:07:35.205Z,50.30
2018-11-04T15:10:02.908Z,50.30
2018-11-04T15:12:30.650Z,50.30
2018-11-04T15:14:58.419Z,50.30
2018-11-04T15:17:26.088Z,50.20
2018-11-04T15:19:53.709Z,50.30
2018-11-04T15:22:21.299Z,50.30
2018-11-04T15:24:49.358Z,50.80
2018-11-04T15:27:16.930Z,50.90
2018-11-04T15:29:44.538Z,50.80
2018-11-04T15:32:12.125Z,50.90
2018-11-04T15:34:39.985Z,50.90
2018-11-04T15:37:07.377Z,50.70
2018-11-04T15:39:34.938Z,50.60
2018-11-04T15:42:02.531Z,50.60
2018-11-04T15:44:30.815Z,50.60
2018-11-04T15:46:58.622Z,51.30
2018-11-04T15:49:26.211Z,50.60
2018-11-04T15:51:53.788Z,50.60
2018-11-04T15:54:21.381Z,50.60
2018-11-04T15:56:49.290Z,50.60
2018-11-04T15:59:16.869Z,50.40
2018-11-04T16:01:44.551Z,50.30
2018-11-04T16:04:12.667Z,50.30
2018-11-04T16:06:40.597Z,50.30
2018-11-04T16:09:08.799Z,50.20
2018-11-04T16:11:37.073Z,50.30
2018-11-04T16:14:04.718Z,50.30
2018-11-04T16:16:32.345Z,50.20
2018-11-04T16:18:59.916Z,50.20
2018-11-04T16:21:27.513Z,50.90
2018-11-04T16:23:55.075Z,50.20
2018-11-04T16:26:22.640Z,50.20
2018-11-04T16:28:50.227Z,50.80
2018-11-04T16:31:17.888Z,50.60
2018-11-04T16:33:45.446Z,50.50
2018-11-04T16:36:13.011Z,50.50
2018-11-04T16:38:40.625Z,50.50
2018-11-04T16:41:08.275Z,50.80
2018-11-04T16:43:36.031Z,50.80
2018-11-04T16:46:03.572Z,50.70
2018-11-04T16:48:31.192Z,50.80
2018-11-04T16:50:58.798Z,51.10
2018-11-04T16:53:26.520Z,51.20
2018-11-04T16:55:54.176Z,51.10
2018-11-04T16:58:21.708Z,50.90
2018-11-04T17:00:49.285Z,50.80
2018-11-04T17:03:16.974Z,50.70
2018-11-04T17:05:45.178Z,50.60
2018-11-04T17:08:12.707Z,50.60
2018-11-04T17:10:40.275Z,50.50
2018-11-04T17:13:07.845Z,50.40
2018-11-04T17:15:35.406Z,50.40
2018-11-04T17:18:03.076Z,50.30
2018-11-04T17:20:30.769Z,50.30
2018-11-04T17:22:58.487Z,50.50
2018-11-04T17:25:26.069Z,50.20
2018-11-04T17:27:53.698Z,50.20
2018-11-04T17:30:21.310Z,50.10
2018-11-04T17:32:49.361Z,50.10
2018-11-04T17:35:17.477Z,50.10
2018-11-04T17:37:45.450Z,50.10
2018-11-04T17:40:14.036Z,50.10
2018-11-04T17:42:41.714Z,50.00
2018-11-04T17:45:10.513Z,50.00
2018-11-04T17:47:38.130Z,50.00
2018-11-04T17:50:07.154Z,50.00
2018-11-04T17:52:34.756Z,50.00
2018-11-04T17:55:02.345Z,50.10
2018-11-04T17:57:29.914Z,50.20
2018-11-04T17:59:57.512Z,50.20
2018-11-04T18:02:25.085Z,50.30
2018-11-04T18:04:52.682Z,50.30
2018-11-04T18:07:20.264Z,50.40
2018-11-04T18:09:48.007Z,50.50
2018-11-04T18:12:15.677Z,50.90
2018-11-04T18:14:43.489Z,50.90
2018-11-04T18:17:11.349Z,51.10
2018-11-04T18:19:39.032Z,51.10
2018-11-04T18:22:06.672Z,51.20
2018-11-04T18:24:34.246Z,51.40
2018-11-04T18:27:02.098Z,51.40
2018-11-04T18:29:29.572Z,51.40
2018-11-04T18:31:57.344Z,51.40
2018-11-04T18:34:24.925Z,51.20
2018-11-04T18:36:52.506Z,51.10
2018-11-04T18:39:20.103Z,51.00
2018-11-04T18:41:47.876Z,50.90
2018-11-04T18:44:15.674Z,50.80
2018-11-04T18:46:43.980Z,50.80
2018-11-04T18:49:11.576Z,50.60
2018-11-04T18:51:39.188Z,50.60
2018-11-04T18:54:06.804Z,50.60
2018-11-04T18:56:34.401Z,50.60
2018-11-04T18:59:02.121Z,50.50
2018-11-04T19:01:29.732Z,50.50
2018-11-04T19:03:57.310Z,50.40
2018-11-04T19:06:25.028Z,50.30
2018-11-04T19:08:52.611Z,50.30
2018-11-04T19:11:20.295Z,50.80
2018-11-04T19:13:47.803Z,50.60
2018-11-04T19:16:15.405Z,50.60
2018-11-04T19:18:43.146Z,50.60
2018-11-04T19:21:10.852Z,50.60
2018-11-04T19:23:38.449Z,50.70
2018-11-04T19:26:06.922Z,50.70
2018-11-04T19:28:34.516Z,50.70
2018-11-04T19:31:02.112Z,50.80
2018-11-04T19:33:29.735Z,51.00
2018-11-04T19:35:57.541Z,51.30
2018-11-04T19:38:25.705Z,51.40
2018-11-04T19:40:53.281Z,51.10
2018-11-04T19:43:20.939Z,51.00
2018-11-04T19:45:48.530Z,51.10
2018-11-04T19:48:16.225Z,51.00
2018-11-04T19:50:43.810Z,51.40
2018-11-04T19:53:11.514Z,51.40
2018-11-04T19:55:39.095Z,51.50
2018-11-04T19:58:06.771Z,51.50
2018-11-04T20:00:34.362Z,51.40
2018-11-04T20:03:02.076Z,51.20
2018-11-04T20:05:29.675Z,51.10
2018-11-04T20:07:57.367Z,51.20
2018-11-04T20:10:25.029Z,51.40
2018-11-04T20:12:58.322Z,51.10
2018-11-04T20:15:25.907Z,50.90
2018-11-04T20:17:53.480Z,50.90
2018-11-04T20:20:23.611Z,50.80
2018-11-04T20:22:51.404Z,50.70
2018-11-04T20:25:24.478Z,50.60
2018-11-04T20:27:52.086Z,50.60
2018-11-04T20:30:19.656Z,50.60
2018-11-04T20:32:52.624Z,50.60
2018-11-04T20:35:21.515Z,50.60
2018-11-04T20:37:49.083Z,50.50
2018-11-04T20:41:24.944Z,50.60
2018-11-04T20:43:52.527Z,50.60
2018-11-04T20:46:20.249Z,50.60
2018-11-04T20:48:53.341Z,50.60
2018-11-04T20:51:20.942Z,50.60
2018-11-04T20:53:48.556Z,50.60
2018-11-04T20:56:21.543Z,50.60
2018-11-04T20:58:49.157Z,50.60
2018-11-04T21:01:16.739Z,50.60
2018-11-04T21:03:44.544Z,50.60
2018-11-04T21:06:12.114Z,50.60
2018-11-04T21:08:39.743Z,50.50
2018-11-04T21:11:07.311Z,50.50
2018-11-04T21:13:34.945Z,50.60
2018-11-04T21:16:02.544Z,50.50
2018-11-04T21:18:30.121Z,50.50
2018-11-04T21:20:57.839Z,50.80
2018-11-04T21:23:25.426Z,51.40
2018-11-04T21:25:53.203Z,51.40
2018-11-04T21:28:20.808Z,51.10
2018-11-04T21:30:48.351Z,50.90
2018-11-04T21:33:17.071Z,50.80
2018-11-04T21:35:44.666Z,50.60
2018-11-04T21:38:12.256Z,50.60
2018-11-04T21:40:39.848Z,50.60
2018-11-04T21:43:07.634Z,50.50
2018-11-04T21:45:35.240Z,50.40
2018-11-04T21:48:02.966Z,50.30
2018-11-04T21:50:30.620Z,50.40
2018-11-04T21:52:58.193Z,50.40
2018-11-04T21:55:25.935Z,50.20
2018-11-04T21:57:53.383Z,50.30
2018-11-04T22:00:20.969Z,50.20
2018-11-04T22:02:48.719Z,50.20
2018-11-04T22:05:16.167Z,50.10
2018-11-04T22:07:44.088Z,50.20
2018-11-04T22:10:13.291Z,50.00
2018-11-04T22:12:41.501Z,50.10
2018-11-04T22:15:09.475Z,49.90
2018-11-04T22:17:37.644Z,49.90
2018-11-04T22:20:05.685Z,49.90
2018-11-04T22:22:33.266Z,50.00
2018-11-04T22:25:00.839Z,49.90
2018-11-04T22:27:28.426Z,49.90
2018-11-04T22:29:56.007Z,49.80
2018-11-04T22:32:23.613Z,49.80
2018-11-04T22:34:51.206Z,49.80
2018-11-04T22:37:18.782Z,49.70
2018-11-04T22:39:46.369Z,49.70
2018-11-04T22:42:14.063Z,49.60
2018-11-04T22:44:41.589Z,49.70
2018-11-04T22:47:09.181Z,49.90
2018-11-04T22:49:36.768Z,50.10
2018-11-04T22:52:04.680Z,50.10
2018-11-04T22:54:32.337Z,49.90
2018-11-04T22:56:59.916Z,49.70
2018-11-04T22:59:27.514Z,49.60
2018-11-04T23:01:55.161Z,49.50
2018-11-04T23:04:27.056Z,49.40
2018-11-04T23:06:54.863Z,49.40
2018-11-04T23:09:22.442Z,49.30
2018-11-04T23:11:50.032Z,49.30
2018-11-04T23:14:17.647Z,49.30
2018-11-04T23:16:45.241Z,49.30
2018-11-04T23:19:12.817Z,49.30
2018-11-04T23:21:40.443Z,49.30
2018-11-04T23:24:08.166Z,49.30
2018-11-04T23:26:35.737Z,49.30
2018-11-04T23:29:03.426Z,49.30
2018-11-04T23:31:31.011Z,49.20
2018-11-04T23:33:58.604Z,49.20
2018-11-04T23:36:26.183Z,49.10
2018-11-04T23:38:53.784Z,49.20
2018-11-04T23:41:21.442Z,49.20
2018-11-04T23:43:49.019Z,49.20
2018-11-04T23:46:16.704Z,49.00
2018-11-04T23:48:44.303Z,49.20
2018-11-04T23:51:11.956Z,49.10
2018-11-04T23:53:39.557Z,49.00
2018-11-04T23:56:07.277Z,49.70
2018-11-04T23:58:34.874Z,49.00
